Time;durP1;ratioP1;P1;durP2;ratioP2;P2;SDS_P1;SDS_P2;PMS_P1;PMS_P2;Temp;Humidity;BMP_temperature;BMP_pressure;BME280_temperature;BME280_humidity;BME280_pressure;Samples;Min_cycle;Max_cycle;Signal;HPM_P1;HPM_P2
2022/12/27 00:01:17;;;;;;;195.82;104.00;;;;;;;;;;5046907;28;20375;-70
2022/12/27 00:03:44;;;;;;;171.93;98.47;;;;;;;;;;5045858;28;20036;-72
2022/12/27 00:06:19;;;;;;;166.60;93.78;;;;;;;;;;5053957;28;20034;-71
2022/12/27 00:08:45;;;;;;;156.88;85.60;;;;;;;;;;5036208;28;20399;-72
2022/12/27 00:11:14;;;;;;;149.00;81.75;;;;;;;;;;5035303;28;20018;-71
2022/12/27 00:13:40;;;;;;;144.15;80.45;;;;;;;;;;5034813;28;20033;-72
2022/12/27 00:16:09;;;;;;;134.68;72.47;;;;;;;;;;5035241;28;20094;-72
2022/12/27 00:18:36;;;;;;;130.68;67.80;;;;;;;;;;5035236;28;20033;-72
2022/12/27 00:21:03;;;;;;;124.85;64.05;;;;;;;;;;5050327;28;20025;-73
2022/12/27 00:23:35;;;;;;;156.95;90.90;;;;;;;;;;5055023;28;20037;-72
2022/12/27 00:26:04;;;;;;;171.00;92.75;;;;;;;;;;5054923;28;20074;-72
2022/12/27 00:28:31;;;;;;;147.13;81.80;;;;;;;;;;5052350;28;20486;-72
2022/12/27 00:30:59;;;;;;;153.48;85.63;;;;;;;;;;5053548;28;20037;-72
2022/12/27 00:33:26;;;;;;;153.80;83.28;;;;;;;;;;5054710;28;20166;-72
2022/12/27 00:35:52;;;;;;;147.80;83.32;;;;;;;;;;5054390;28;20542;-72
2022/12/27 00:38:18;;;;;;;152.57;83.88;;;;;;;;;;5054640;28;20163;-72
2022/12/27 00:40:43;;;;;;;151.50;86.80;;;;;;;;;;5054437;28;20060;-73
2022/12/27 00:43:09;;;;;;;131.07;73.93;;;;;;;;;;5054807;28;20067;-74
2022/12/27 00:45:36;;;;;;;155.77;83.85;;;;;;;;;;5054776;28;20045;-73
2022/12/27 00:48:02;;;;;;;115.05;62.13;;;;;;;;;;5034696;28;20152;-73
2022/12/27 00:50:28;;;;;;;94.22;49.60;;;;;;;;;;5027445;28;20037;-73
2022/12/27 00:52:54;;;;;;;88.35;47.97;;;;;;;;;;5054023;28;20025;-72
2022/12/27 00:55:19;;;;;;;87.75;48.38;;;;;;;;;;5053141;28;20036;-72
2022/12/27 00:57:45;;;;;;;84.03;43.83;;;;;;;;;;5037499;28;20021;-72
2022/12/27 01:00:12;;;;;;;80.65;44.03;;;;;;;;;;5034318;28;20380;-72
2022/12/27 01:02:38;;;;;;;84.85;42.55;;;;;;;;;;5034628;28;20096;-72
2022/12/27 01:05:05;;;;;;;87.60;48.55;;;;;;;;;;5041681;28;20037;-72
2022/12/27 01:07:30;;;;;;;90.15;49.08;;;;;;;;;;5053885;28;20037;-72
2022/12/27 01:09:56;;;;;;;89.75;47.42;;;;;;;;;;5053955;28;20041;-72
2022/12/27 01:12:22;;;;;;;81.43;43.95;;;;;;;;;;5052899;28;20391;-72
2022/12/27 01:14:48;;;;;;;79.35;41.42;;;;;;;;;;5052710;28;20071;-72
2022/12/27 01:17:14;;;;;;;79.20;40.90;;;;;;;;;;5042768;28;20479;-72
2022/12/27 01:19:40;;;;;;;84.95;48.72;;;;;;;;;;5019980;28;20387;-72
2022/12/27 01:22:06;;;;;;;88.15;46.63;;;;;;;;;;5043826;28;20021;-72
2022/12/27 01:24:33;;;;;;;84.30;47.35;;;;;;;;;;5034007;28;20178;-71
2022/12/27 01:26:59;;;;;;;94.30;49.20;;;;;;;;;;5034097;28;20063;-73
2022/12/27 01:29:25;;;;;;;80.32;44.13;;;;;;;;;;5033771;28;20045;-72
2022/12/27 01:31:51;;;;;;;88.30;46.80;;;;;;;;;;5033134;28;20187;-73
2022/12/27 01:34:17;;;;;;;88.30;47.80;;;;;;;;;;5034955;28;20112;-73
2022/12/27 01:36:44;;;;;;;95.15;49.78;;;;;;;;;;5038560;28;20091;-72
2022/12/27 01:39:12;;;;;;;79.28;44.70;;;;;;;;;;5053307;28;20040;-73
2022/12/27 01:44:38;;;;;;;85.60;45.72;;;;;;;;;;5033752;28;20511;-72
2022/12/27 01:47:22;;;;;;;76.60;42.13;;;;;;;;;;5033819;28;20045;-72
2022/12/27 01:50:00;;;;;;;82.90;46.58;;;;;;;;;;5038544;28;20520;-73
2022/12/27 01:52:58;;;;;;;87.28;47.45;;;;;;;;;;5053079;28;20037;-73
2022/12/27 01:55:58;;;;;;;66.03;38.97;;;;;;;;;;5039100;28;20069;-71
2022/12/27 01:58:46;;;;;;;60.42;35.53;;;;;;;;;;5053037;28;20033;-73
2022/12/27 02:01:24;;;;;;;77.30;39.40;;;;;;;;;;5053226;28;20033;-72
2022/12/27 02:04:00;;;;;;;66.18;38.72;;;;;;;;;;5053803;28;20029;-72
2022/12/27 02:06:27;;;;;;;75.65;40.65;;;;;;;;;;5034412;28;20113;-72
2022/12/27 02:08:58;;;;;;;90.60;43.90;;;;;;;;;;5033578;28;20029;-72
2022/12/27 02:14:15;;;;;;;81.55;44.13;;;;;;;;;;5033362;28;20040;-72
2022/12/27 02:16:41;;;;;;;77.35;42.30;;;;;;;;;;5033276;28;20017;-72
2022/12/27 02:19:23;;;;;;;89.85;47.30;;;;;;;;;;5033173;28;20033;-72
2022/12/27 02:22:07;;;;;;;71.07;41.63;;;;;;;;;;5052989;28;20047;-72
2022/12/27 02:24:48;;;;;;;80.95;42.13;;;;;;;;;;5052883;28;20037;-72
2022/12/27 02:27:13;;;;;;;78.22;43.47;;;;;;;;;;5052515;28;20048;-72
2022/12/27 02:30:00;;;;;;;72.05;42.05;;;;;;;;;;5051646;28;20045;-72
2022/12/27 02:32:39;;;;;;;67.40;38.42;;;;;;;;;;5052747;28;20398;-73
2022/12/27 02:35:18;;;;;;;71.10;38.70;;;;;;;;;;5051489;28;20025;-72
2022/12/27 02:37:56;;;;;;;63.92;38.10;;;;;;;;;;5040862;28;20457;-72
2022/12/27 02:54:47;;;;;;;56.15;32.17;;;;;;;;;;5032497;28;20104;-72
2022/12/27 02:57:31;;;;;;;52.70;31.70;;;;;;;;;;5032837;28;20190;-72
2022/12/27 03:03:34;;;;;;;53.15;31.38;;;;;;;;;;5032563;28;20033;-72
2022/12/27 03:06:38;;;;;;;50.40;29.45;;;;;;;;;;5046601;28;20037;-71
2022/12/27 03:18:26;;;;;;;51.47;29.15;;;;;;;;;;5037509;28;20188;-71
2022/12/27 03:26:31;;;;;;;41.72;25.73;;;;;;;;;;5051636;28;20095;-73
2022/12/27 03:34:38;;;;;;;47.78;25.92;;;;;;;;;;5034687;28;20036;-73
2022/12/27 03:40:17;;;;;;;49.30;27.73;;;;;;;;;;5051463;28;20536;-71
2022/12/27 03:43:10;;;;;;;49.85;26.40;;;;;;;;;;5043606;28;20060;-72
2022/12/27 03:46:35;;;;;;;45.65;27.67;;;;;;;;;;5031716;28;20029;-73
2022/12/27 03:49:09;;;;;;;53.95;26.73;;;;;;;;;;5023296;28;20399;-73
2022/12/27 03:51:45;;;;;;;49.25;29.17;;;;;;;;;;5049776;28;20437;-71
2022/12/27 03:54:25;;;;;;;51.10;29.73;;;;;;;;;;5051144;28;20041;-73
2022/12/27 03:57:02;;;;;;;58.50;33.08;;;;;;;;;;5051277;28;20045;-73
2022/12/27 03:59:28;;;;;;;67.45;33.95;;;;;;;;;;5051175;28;20032;-73
2022/12/27 04:01:55;;;;;;;59.17;33.63;;;;;;;;;;5051795;28;20103;-72
2022/12/27 04:04:21;;;;;;;57.25;32.67;;;;;;;;;;5051144;28;20040;-73
2022/12/27 04:06:47;;;;;;;62.20;33.60;;;;;;;;;;5051446;28;20394;-74
2022/12/27 04:36:37;;;;;;;34.50;21.80;;;;;;;;;;5050849;28;20041;-72
2022/12/27 04:39:03;;;;;;;44.38;23.77;;;;;;;;;;5050807;28;20025;-73
2022/12/27 04:55:23;;;;;;;41.90;21.23;;;;;;;;;;5039897;28;20720;-72
2022/12/27 04:57:49;;;;;;;36.30;20.88;;;;;;;;;;5053943;28;20033;-72
2022/12/27 05:03:06;;;;;;;29.23;19.05;;;;;;;;;;5052418;28;20036;-72
2022/12/27 05:05:32;;;;;;;31.70;18.85;;;;;;;;;;5047568;28;20063;-73
2022/12/27 05:16:13;;;;;;;44.63;21.15;;;;;;;;;;5047116;28;20399;-73
2022/12/27 05:18:39;;;;;;;47.30;25.90;;;;;;;;;;5043736;28;20091;-71
2022/12/27 05:21:06;;;;;;;42.13;24.05;;;;;;;;;;5048868;28;20452;-73
2022/12/27 05:26:26;;;;;;;48.72;26.60;;;;;;;;;;5038989;28;20478;-73
2022/12/27 05:28:55;;;;;;;42.65;26.58;;;;;;;;;;5037037;28;20100;-72
2022/12/27 05:31:23;;;;;;;48.13;26.35;;;;;;;;;;5020536;28;20061;-73
2022/12/27 05:33:50;;;;;;;43.33;26.35;;;;;;;;;;5033491;28;20498;-73
2022/12/27 05:36:16;;;;;;;42.85;26.58;;;;;;;;;;5033086;28;20093;-72
2022/12/27 05:38:42;;;;;;;52.05;27.67;;;;;;;;;;5030396;28;20372;-73
2022/12/27 05:41:08;;;;;;;52.13;28.90;;;;;;;;;;5032546;28;20017;-73
2022/12/27 05:43:34;;;;;;;68.10;31.50;;;;;;;;;;5029444;28;20041;-71
2022/12/27 05:46:06;;;;;;;52.42;28.25;;;;;;;;;;5029146;28;20637;-72
2022/12/27 05:48:32;;;;;;;44.55;27.52;;;;;;;;;;5032472;28;20042;-72
2022/12/27 05:51:02;;;;;;;45.20;26.88;;;;;;;;;;5025937;28;20079;-72
2022/12/27 05:53:28;;;;;;;43.67;26.92;;;;;;;;;;5026692;28;20399;-71
2022/12/27 05:55:55;;;;;;;45.22;26.25;;;;;;;;;;5028382;28;20025;-72
2022/12/27 05:58:21;;;;;;;44.72;26.80;;;;;;;;;;5025915;28;20029;-71
2022/12/27 06:00:46;;;;;;;49.88;27.10;;;;;;;;;;5010114;28;20034;-72
2022/12/27 06:03:12;;;;;;;54.38;29.60;;;;;;;;;;5009951;28;20038;-72
2022/12/27 06:05:38;;;;;;;46.45;25.88;;;;;;;;;;5022350;28;20036;-72
2022/12/27 06:08:04;;;;;;;46.60;25.85;;;;;;;;;;5030553;28;20059;-73
2022/12/27 06:10:30;;;;;;;48.70;24.42;;;;;;;;;;5030397;28;20030;-72
2022/12/27 06:12:59;;;;;;;115.68;25.05;;;;;;;;;;5030586;28;20047;-73
2022/12/27 06:15:25;;;;;;;72.47;25.52;;;;;;;;;;5031066;28;20083;-73
2022/12/27 06:17:51;;;;;;;63.40;24.63;;;;;;;;;;5044634;28;20057;-72
2022/12/27 06:20:17;;;;;;;42.40;25.20;;;;;;;;;;5050148;28;20041;-71
2022/12/27 06:22:43;;;;;;;31.38;21.75;;;;;;;;;;5049487;28;20041;-71
2022/12/27 06:25:10;;;;;;;52.33;26.73;;;;;;;;;;5051053;28;20037;-72
2022/12/27 06:27:37;;;;;;;37.42;22.55;;;;;;;;;;5050341;28;20033;-73
2022/12/27 06:30:03;;;;;;;35.15;22.20;;;;;;;;;;5051972;28;20407;-71
2022/12/27 06:32:29;;;;;;;38.65;22.20;;;;;;;;;;5049976;28;20033;-72
2022/12/27 06:34:55;;;;;;;35.60;22.23;;;;;;;;;;5051557;28;20025;-72
2022/12/27 06:37:21;;;;;;;38.13;22.80;;;;;;;;;;5051904;28;20253;-71
2022/12/27 06:39:47;;;;;;;39.75;23.92;;;;;;;;;;5051584;28;20047;-72
2022/12/27 06:42:13;;;;;;;38.10;23.55;;;;;;;;;;5031192;28;20398;-72
2022/12/27 06:44:38;;;;;;;37.95;23.52;;;;;;;;;;5031817;28;20037;-72
2022/12/27 06:47:04;;;;;;;36.85;21.70;;;;;;;;;;5030406;28;20136;-72
2022/12/27 06:49:30;;;;;;;34.33;22.42;;;;;;;;;;5031328;28;20029;-72
2022/12/27 06:51:56;;;;;;;31.63;20.10;;;;;;;;;;5032134;28;20030;-71
2022/12/27 06:54:21;;;;;;;29.90;19.15;;;;;;;;;;5039624;28;20355;-71
2022/12/27 06:56:47;;;;;;;34.13;18.08;;;;;;;;;;5051419;28;20029;-72
2022/12/27 06:59:13;;;;;;;31.25;16.83;;;;;;;;;;5041865;28;20331;-71
2022/12/27 07:01:40;;;;;;;27.65;16.77;;;;;;;;;;5041864;28;20020;-71
2022/12/27 07:04:06;;;;;;;32.08;17.95;;;;;;;;;;5042723;28;20056;-71
2022/12/27 07:06:35;;;;;;;33.03;20.85;;;;;;;;;;5030236;28;20026;-73
2022/12/27 07:09:02;;;;;;;35.42;22.58;;;;;;;;;;5030035;28;20517;-71
2022/12/27 07:11:35;;;;;;;39.47;22.20;;;;;;;;;;5030794;28;20033;-70
2022/12/27 07:14:01;;;;;;;39.00;24.27;;;;;;;;;;5030819;28;20032;-71
2022/12/27 07:16:28;;;;;;;45.47;27.63;;;;;;;;;;5028241;28;20294;-73
2022/12/27 07:18:56;;;;;;;46.22;27.63;;;;;;;;;;5029549;28;20487;-72
2022/12/27 07:21:24;;;;;;;43.33;28.48;;;;;;;;;;5031016;28;20066;-72
2022/12/27 07:23:51;;;;;;;42.00;23.15;;;;;;;;;;5029484;28;20063;-73
2022/12/27 07:26:20;;;;;;;33.45;21.73;;;;;;;;;;5029945;28;20017;-72
2022/12/27 07:28:46;;;;;;;32.97;19.98;;;;;;;;;;5030209;28;20561;-73
2022/12/27 07:31:19;;;;;;;33.50;22.58;;;;;;;;;;5036350;28;20082;-72
2022/12/27 07:33:45;;;;;;;38.70;23.73;;;;;;;;;;5051232;28;20090;-73
2022/12/27 07:36:15;;;;;;;47.50;25.25;;;;;;;;;;5051094;28;20105;-72
2022/12/27 07:38:41;;;;;;;43.17;24.67;;;;;;;;;;5049316;28;20524;-72
2022/12/27 07:41:10;;;;;;;39.03;23.60;;;;;;;;;;5050168;28;20029;-72
2022/12/27 07:43:36;;;;;;;38.25;23.15;;;;;;;;;;5044487;28;20051;-72
2022/12/27 07:46:08;;;;;;;35.25;22.52;;;;;;;;;;5031168;28;20033;-73
2022/12/27 07:48:34;;;;;;;34.03;20.65;;;;;;;;;;5033677;28;20032;-73
2022/12/27 07:51:01;;;;;;;38.13;21.63;;;;;;;;;;5030373;28;20083;-75
2022/12/27 07:53:28;;;;;;;40.35;21.75;;;;;;;;;;5032241;28;20809;-72
2022/12/27 07:55:53;;;;;;;38.80;22.00;;;;;;;;;;5049998;28;20067;-73
2022/12/27 07:58:20;;;;;;;39.47;24.17;;;;;;;;;;5049754;28;20033;-73
2022/12/27 08:00:47;;;;;;;36.30;24.00;;;;;;;;;;5044482;28;20071;-73
2022/12/27 08:03:13;;;;;;;46.78;29.25;;;;;;;;;;5029547;28;20044;-74
2022/12/27 08:05:53;;;;;;;50.75;30.40;;;;;;;;;;5049208;28;20033;-73
2022/12/27 08:08:23;;;;;;;52.45;31.08;;;;;;;;;;5048432;28;20394;-73
2022/12/27 08:10:49;;;;;;;60.03;29.48;;;;;;;;;;5053518;28;20073;-73
2022/12/27 08:13:14;;;;;;;38.90;26.15;;;;;;;;;;5052987;28;20048;-74
2022/12/27 08:15:43;;;;;;;40.50;27.20;;;;;;;;;;5051238;28;20040;-75
2022/12/27 08:18:09;;;;;;;40.10;25.05;;;;;;;;;;5046722;28;20055;-76
2022/12/27 08:20:35;;;;;;;32.05;22.38;;;;;;;;;;5047740;28;20025;-75
2022/12/27 08:23:01;;;;;;;32.92;20.80;;;;;;;;;;5051146;28;20040;-74
2022/12/27 08:25:27;;;;;;;33.42;21.58;;;;;;;;;;5014733;28;20560;-74
2022/12/27 08:28:05;;;;;;;36.85;23.55;;;;;;;;;;5030772;28;20098;-76
2022/12/27 08:30:31;;;;;;;42.30;22.83;;;;;;;;;;5053375;28;20032;-74
2022/12/27 08:32:56;;;;;;;36.80;22.60;;;;;;;;;;5054690;28;20032;-73
2022/12/27 08:35:22;;;;;;;41.85;24.90;;;;;;;;;;5054420;28;20036;-74
2022/12/27 08:37:48;;;;;;;36.55;24.77;;;;;;;;;;5053511;28;20024;-75
2022/12/27 08:40:14;;;;;;;43.22;28.90;;;;;;;;;;5050349;28;20033;-73
2022/12/27 08:42:40;;;;;;;51.88;31.55;;;;;;;;;;5050055;28;20120;-75
2022/12/27 08:45:06;;;;;;;51.80;30.27;;;;;;;;;;5042305;28;20037;-73
2022/12/27 08:47:32;;;;;;;47.63;28.33;;;;;;;;;;5033811;28;20030;-74
2022/12/27 08:49:58;;;;;;;46.80;28.83;;;;;;;;;;5045728;28;20047;-73
2022/12/27 08:52:25;;;;;;;43.33;25.58;;;;;;;;;;5053927;28;20032;-75
2022/12/27 08:54:51;;;;;;;40.00;25.60;;;;;;;;;;5052439;28;20045;-76
2022/12/27 08:57:17;;;;;;;47.35;26.25;;;;;;;;;;5052996;28;20474;-73
2022/12/27 08:59:42;;;;;;;42.13;25.80;;;;;;;;;;5050730;28;20506;-74
2022/12/27 09:02:13;;;;;;;37.22;23.58;;;;;;;;;;5043118;28;20057;-75
2022/12/27 09:04:39;;;;;;;48.58;26.85;;;;;;;;;;5041938;28;20041;-75
2022/12/27 09:07:05;;;;;;;42.85;25.42;;;;;;;;;;5053025;28;20505;-74
2022/12/27 09:09:31;;;;;;;41.97;25.10;;;;;;;;;;5052791;28;20059;-74
2022/12/27 09:11:57;;;;;;;43.17;24.63;;;;;;;;;;5051792;28;20032;-73
2022/12/27 09:14:23;;;;;;;53.00;29.73;;;;;;;;;;5049200;28;20037;-74
2022/12/27 09:16:49;;;;;;;41.58;26.90;;;;;;;;;;5053171;28;20143;-73
2022/12/27 09:19:15;;;;;;;53.92;27.48;;;;;;;;;;5067506;28;20065;-76
2022/12/27 09:21:42;;;;;;;41.78;26.05;;;;;;;;;;5047267;28;20032;-73
2022/12/27 09:24:11;;;;;;;42.20;26.50;;;;;;;;;;5052925;28;20415;-76
2022/12/27 09:26:38;;;;;;;46.72;26.77;;;;;;;;;;5052116;28;20077;-76
2022/12/27 09:29:04;;;;;;;35.30;21.00;;;;;;;;;;5050573;28;20061;-73
2022/12/27 09:31:31;;;;;;;52.00;28.65;;;;;;;;;;5030811;28;20257;-76
2022/12/27 09:33:58;;;;;;;50.17;28.15;;;;;;;;;;5039095;28;20040;-76
2022/12/27 09:36:27;;;;;;;44.10;27.35;;;;;;;;;;5053133;28;20033;-77
2022/12/27 09:38:55;;;;;;;38.00;25.60;;;;;;;;;;5050688;28;20406;-75
2022/12/27 09:41:39;;;;;;;41.60;26.35;;;;;;;;;;5053172;28;20017;-76
2022/12/27 09:44:15;;;;;;;44.40;24.65;;;;;;;;;;5048983;28;20517;-75
2022/12/27 09:46:55;;;;;;;40.70;26.60;;;;;;;;;;5052248;28;20033;-74
2022/12/27 09:49:30;;;;;;;52.80;28.52;;;;;;;;;;5045789;28;20025;-77
2022/12/27 09:52:03;;;;;;;45.17;27.92;;;;;;;;;;5052021;28;20029;-74
2022/12/27 09:55:17;;;;;;;40.15;24.70;;;;;;;;;;5049226;28;20486;-74
2022/12/27 09:57:46;;;;;;;37.65;23.58;;;;;;;;;;5035011;28;20036;-75
2022/12/27 10:00:16;;;;;;;43.85;25.77;;;;;;;;;;5050808;28;20028;-74
2022/12/27 10:02:44;;;;;;;43.45;27.88;;;;;;;;;;5051823;28;20037;-74
2022/12/27 10:05:21;;;;;;;43.92;27.70;;;;;;;;;;5052722;28;20124;-75
2022/12/27 10:08:26;;;;;;;40.08;26.40;;;;;;;;;;5049565;28;20036;-74
2022/12/27 10:11:03;;;;;;;52.63;30.70;;;;;;;;;;5039522;28;20092;-72
2022/12/27 10:14:04;;;;;;;53.35;26.85;;;;;;;;;;5024925;28;20045;-75
2022/12/27 10:16:40;;;;;;;45.25;29.02;;;;;;;;;;5027536;28;20045;-75
2022/12/27 10:19:37;;;;;;;49.03;29.17;;;;;;;;;;5024925;28;20734;-74
2022/12/27 10:22:08;;;;;;;51.92;29.63;;;;;;;;;;5011637;28;20121;-75
2022/12/27 10:24:47;;;;;;;46.85;28.42;;;;;;;;;;5011590;28;20117;-75
2022/12/27 10:27:18;;;;;;;48.78;30.27;;;;;;;;;;5011015;28;20533;-74
2022/12/27 10:29:44;;;;;;;51.03;30.70;;;;;;;;;;5012808;28;20129;-75
2022/12/27 10:32:15;;;;;;;51.58;32.90;;;;;;;;;;5032763;28;20029;-75
2022/12/27 10:34:41;;;;;;;46.47;31.05;;;;;;;;;;5047952;28;20590;-76
2022/12/27 10:37:12;;;;;;;47.13;31.48;;;;;;;;;;5032013;28;20029;-76
2022/12/27 10:39:39;;;;;;;46.47;31.35;;;;;;;;;;5024169;28;20042;-75
2022/12/27 10:42:33;;;;;;;45.92;31.45;;;;;;;;;;5045449;28;20057;-74
2022/12/27 10:45:35;;;;;;;52.22;30.00;;;;;;;;;;5032341;28;20122;-75
2022/12/27 10:48:27;;;;;;;54.33;30.60;;;;;;;;;;5010767;28;20099;-75
2022/12/27 10:50:58;;;;;;;48.30;30.15;;;;;;;;;;5025751;28;20380;-74
2022/12/27 10:53:39;;;;;;;49.88;31.73;;;;;;;;;;5033195;28;20056;-75
2022/12/27 10:56:12;;;;;;;63.25;31.05;;;;;;;;;;5042489;28;20279;-75
2022/12/27 10:58:47;;;;;;;51.85;31.73;;;;;;;;;;5051547;28;20105;-75
2022/12/27 11:01:24;;;;;;;45.03;30.02;;;;;;;;;;5051616;28;20093;-74
2022/12/27 11:04:06;;;;;;;51.38;31.40;;;;;;;;;;5051767;28;20052;-75
2022/12/27 11:06:32;;;;;;;54.97;32.45;;;;;;;;;;5051475;28;20490;-74
2022/12/27 11:09:17;;;;;;;49.72;30.05;;;;;;;;;;5049962;28;20028;-76
2022/12/27 11:11:43;;;;;;;40.50;28.33;;;;;;;;;;5050093;28;20041;-75
2022/12/27 11:14:14;;;;;;;43.30;27.52;;;;;;;;;;5051332;28;20074;-75
2022/12/27 11:16:40;;;;;;;44.50;27.95;;;;;;;;;;5050395;28;20044;-75
2022/12/27 11:19:23;;;;;;;47.58;27.80;;;;;;;;;;5051486;28;20037;-76
2022/12/27 11:21:51;;;;;;;44.75;27.73;;;;;;;;;;5051156;28;20509;-75
2022/12/27 11:24:20;;;;;;;48.58;27.45;;;;;;;;;;5042577;28;20018;-77
2022/12/27 11:26:53;;;;;;;42.03;29.08;;;;;;;;;;5031569;28;20500;-75
2022/12/27 11:29:22;;;;;;;40.33;26.15;;;;;;;;;;5031009;28;20126;-75
2022/12/27 11:31:51;;;;;;;36.38;25.60;;;;;;;;;;5031230;28;20053;-74
2022/12/27 11:34:35;;;;;;;46.00;26.70;;;;;;;;;;5051125;28;20047;-74
2022/12/27 11:37:16;;;;;;;51.20;26.58;;;;;;;;;;5051380;28;20051;-73
2022/12/27 11:39:43;;;;;;;47.45;27.48;;;;;;;;;;5043808;28;20887;-73
2022/12/27 11:42:38;;;;;;;41.03;25.80;;;;;;;;;;5033303;28;20027;-73
2022/12/27 11:45:25;;;;;;;36.75;23.55;;;;;;;;;;5047468;28;20071;-74
2022/12/27 11:47:59;;;;;;;40.45;25.65;;;;;;;;;;5049237;28;20078;-75
2022/12/27 11:50:46;;;;;;;36.22;24.23;;;;;;;;;;5043430;28;20032;-76
2022/12/27 11:54:11;;;;;;;42.75;24.45;;;;;;;;;;5051196;28;20033;-75
2022/12/27 11:56:49;;;;;;;37.22;23.75;;;;;;;;;;5005586;28;20429;-74
2022/12/27 11:59:30;;;;;;;37.85;24.10;;;;;;;;;;5051618;28;20495;-75
2022/12/27 12:02:06;;;;;;;34.53;22.23;;;;;;;;;;5051862;28;20035;-76
2022/12/27 12:04:53;;;;;;;32.10;21.15;;;;;;;;;;5055570;28;20398;-75
2022/12/27 12:07:44;;;;;;;32.05;20.45;;;;;;;;;;5055439;28;20162;-77
2022/12/27 12:10:29;;;;;;;26.88;19.42;;;;;;;;;;5053707;28;20028;-77
2022/12/27 12:13:16;;;;;;;30.15;20.20;;;;;;;;;;5054052;28;20033;-75
2022/12/27 12:16:07;;;;;;;24.38;15.13;;;;;;;;;;5055487;28;20557;-76
2022/12/27 12:19:11;;;;;;;20.50;13.27;;;;;;;;;;5055734;28;20032;-76
2022/12/27 12:22:01;;;;;;;20.27;12.80;;;;;;;;;;5055604;28;20037;-76
2022/12/27 12:24:42;;;;;;;20.00;12.05;;;;;;;;;;5055797;28;20269;-75
2022/12/27 12:27:45;;;;;;;19.27;12.75;;;;;;;;;;5047743;28;20029;-75
2022/12/27 12:30:21;;;;;;;23.98;13.20;;;;;;;;;;5055051;28;20032;-75
2022/12/27 12:33:06;;;;;;;17.42;11.90;;;;;;;;;;5051854;28;20111;-74
2022/12/27 12:35:45;;;;;;;19.30;10.30;;;;;;;;;;5053593;28;20037;-76
2022/12/27 12:38:11;;;;;;;22.23;12.77;;;;;;;;;;5049903;28;20032;-76
2022/12/27 12:41:16;;;;;;;22.23;12.02;;;;;;;;;;5037551;28;20031;-75
2022/12/27 12:44:06;;;;;;;21.00;11.60;;;;;;;;;;5054267;28;20033;-75
2022/12/27 12:46:50;;;;;;;17.88;11.43;;;;;;;;;;5050573;28;20052;-76
2022/12/27 12:49:43;;;;;;;19.67;11.60;;;;;;;;;;5052936;28;20075;-77
2022/12/27 12:52:27;;;;;;;17.65;10.93;;;;;;;;;;5051821;28;20028;-75
2022/12/27 12:54:52;;;;;;;18.27;11.32;;;;;;;;;;5051897;28;20496;-75
2022/12/27 12:57:38;;;;;;;15.40;10.95;;;;;;;;;;5054140;28;20100;-76
2022/12/27 13:00:27;;;;;;;14.20;9.77;;;;;;;;;;5051149;28;20489;-75
2022/12/27 13:03:15;;;;;;;20.25;11.15;;;;;;;;;;5049662;28;20075;-76
2022/12/27 13:05:59;;;;;;;15.27;10.35;;;;;;;;;;5052466;28;20025;-77
2022/12/27 13:08:28;;;;;;;;;;;;;;;;;;5049215;28;20033;-75
2022/12/27 13:10:53;;;;;;;14.10;9.18;;;;;;;;;;5050213;28;19919;-77
2022/12/27 13:13:50;;;;;;;17.38;10.75;;;;;;;;;;5053170;28;20081;-78
2022/12/27 13:16:38;;;;;;;24.65;12.10;;;;;;;;;;5048204;28;20038;-77
2022/12/27 13:19:12;;;;;;;19.05;10.00;;;;;;;;;;5052252;28;20039;-75
2022/12/27 13:21:48;;;;;;;19.38;10.15;;;;;;;;;;5053674;28;20453;-78
2022/12/27 13:24:25;;;;;;;23.65;10.63;;;;;;;;;;5053885;28;20033;-77
2022/12/27 13:27:11;;;;;;;19.83;11.65;;;;;;;;;;5053660;28;20044;-78
2022/12/27 13:29:57;;;;;;;19.35;11.52;;;;;;;;;;5053066;28;20048;-78
2022/12/27 13:32:50;;;;;;;16.67;11.30;;;;;;;;;;5054313;28;20040;-77
2022/12/27 13:35:51;;;;;;;20.92;12.65;;;;;;;;;;5076899;28;20037;-78
2022/12/27 13:38:36;;;;;;;20.45;12.75;;;;;;;;;;5047694;28;20406;-78
2022/12/27 13:41:31;;;;;;;20.20;12.45;;;;;;;;;;5063896;28;20028;-81
2022/12/27 13:44:18;;;;;;;22.70;12.52;;;;;;;;;;5051985;28;20044;-78
2022/12/27 13:46:56;;;;;;;22.30;13.70;;;;;;;;;;5052782;28;20036;-77
2022/12/27 13:49:33;;;;;;;22.20;13.80;;;;;;;;;;5044113;28;20037;-78
2022/12/27 13:52:39;;;;;;;22.38;12.68;;;;;;;;;;5038847;28;20026;-76
2022/12/27 13:55:44;;;;;;;19.65;12.25;;;;;;;;;;5043120;28;20133;-79
2022/12/27 13:58:44;;;;;;;21.70;13.18;;;;;;;;;;5064037;28;20438;-78
2022/12/27 14:01:25;;;;;;;18.83;12.43;;;;;;;;;;5048221;28;20044;-77
2022/12/27 14:04:05;;;;;;;18.15;12.43;;;;;;;;;;5042234;28;20048;-79
2022/12/27 14:06:36;;;;;;;20.90;12.70;;;;;;;;;;5049670;28;20425;-78
2022/12/27 14:09:30;;;;;;;16.33;10.82;;;;;;;;;;5058384;28;20544;-78
2022/12/27 14:12:08;;;;;;;17.27;10.82;;;;;;;;;;5076995;28;20017;-78
2022/12/27 14:14:38;;;;;;;15.35;10.32;;;;;;;;;;5039893;28;20041;-78
2022/12/27 14:17:30;;;;;;;17.55;11.20;;;;;;;;;;5045164;28;20500;-78
2022/12/27 14:20:16;;;;;;;18.30;10.50;;;;;;;;;;5047061;28;20035;-77
2022/12/27 14:22:54;;;;;;;23.52;11.00;;;;;;;;;;5056525;28;20509;-78
2022/12/27 14:25:29;;;;;;;17.63;10.65;;;;;;;;;;5053779;28;20037;-80
2022/12/27 14:28:17;;;;;;;18.45;11.20;;;;;;;;;;5044338;28;20048;-78
2022/12/27 14:31:11;;;;;;;16.10;10.45;;;;;;;;;;5062723;28;20080;-79
2022/12/27 14:34:05;;;;;;;15.32;9.52;;;;;;;;;;5052215;28;20211;-77
2022/12/27 14:37:03;;;;;;;15.77;9.23;;;;;;;;;;5043788;28;20041;-79
2022/12/27 14:39:35;;;;;;;14.40;9.77;;;;;;;;;;5041693;28;20049;-79
2022/12/27 14:42:16;;;;;;;15.15;9.80;;;;;;;;;;5057946;28;20091;-78
2022/12/27 14:45:16;;;;;;;16.10;9.90;;;;;;;;;;5051616;28;20036;-78
2022/12/27 14:48:19;;;;;;;19.40;11.20;;;;;;;;;;5048816;28;20029;-76
2022/12/27 14:51:18;;;;;;;19.00;11.85;;;;;;;;;;5056417;28;20087;-77
2022/12/27 14:54:28;;;;;;;38.15;23.17;;;;;;;;;;5039812;28;20040;-79
2022/12/27 14:57:02;;;;;;;28.77;16.05;;;;;;;;;;5031246;28;20041;-78
2022/12/27 14:59:46;;;;;;;26.90;16.20;;;;;;;;;;5053797;28;20098;-78
2022/12/27 15:02:30;;;;;;;24.45;14.63;;;;;;;;;;5060979;28;20047;-78
2022/12/27 15:05:20;;;;;;;24.80;15.18;;;;;;;;;;5041602;28;20043;-78
2022/12/27 15:08:14;;;;;;;21.45;12.93;;;;;;;;;;5075234;28;20040;-79
2022/12/27 15:10:46;;;;;;;27.08;15.45;;;;;;;;;;5040358;28;20128;-78
2022/12/27 15:13:20;;;;;;;22.95;13.80;;;;;;;;;;5044270;28;20074;-78
2022/12/27 15:16:13;;;;;;;24.02;15.50;;;;;;;;;;5042470;28;20043;-78
2022/12/27 15:19:02;;;;;;;29.85;16.02;;;;;;;;;;5061400;28;20526;-79
2022/12/27 15:22:00;;;;;;;31.25;17.67;;;;;;;;;;5025554;28;20068;-79
2022/12/27 15:24:37;;;;;;;48.80;29.95;;;;;;;;;;5045167;28;20086;-78
2022/12/27 15:27:18;;;;;;;35.42;23.73;;;;;;;;;;5037284;28;20037;-77
2022/12/27 15:29:53;;;;;;;48.33;27.65;;;;;;;;;;5043818;28;20041;-78
2022/12/27 15:32:34;;;;;;;40.22;25.40;;;;;;;;;;5053902;28;20502;-78
2022/12/27 15:35:43;;;;;;;47.20;29.17;;;;;;;;;;5059842;28;20048;-78
2022/12/27 15:38:11;;;;;;;50.58;31.52;;;;;;;;;;5045832;28;20052;-78
2022/12/27 15:40:50;;;;;;;47.33;28.17;;;;;;;;;;5051735;28;20091;-78
2022/12/27 15:44:06;;;;;;;53.38;31.25;;;;;;;;;;5050903;28;20055;-76
2022/12/27 15:46:56;;;;;;;54.75;34.05;;;;;;;;;;5043582;28;20040;-78
2022/12/27 15:49:59;;;;;;;88.88;50.83;;;;;;;;;;5046143;28;20037;-78
2022/12/27 15:52:52;;;;;;;106.63;58.50;;;;;;;;;;5039369;28;20036;-79
2022/12/27 15:55:48;;;;;;;79.20;43.05;;;;;;;;;;5044912;28;20112;-78
2022/12/27 15:58:18;;;;;;;73.70;41.65;;;;;;;;;;5040765;28;20505;-79
2022/12/27 16:01:04;;;;;;;68.38;35.85;;;;;;;;;;5046272;28;20031;-77
2022/12/27 16:03:36;;;;;;;71.30;40.88;;;;;;;;;;5051154;28;20118;-78
2022/12/27 16:06:04;;;;;;;62.97;38.22;;;;;;;;;;5046546;28;20140;-77
2022/12/27 16:08:38;;;;;;;68.95;40.65;;;;;;;;;;5047209;28;20041;-77
2022/12/27 16:11:11;;;;;;;69.40;40.92;;;;;;;;;;5047244;28;20141;-77
2022/12/27 16:13:47;;;;;;;75.40;41.95;;;;;;;;;;5054474;28;20045;-78
2022/12/27 16:16:28;;;;;;;83.75;37.65;;;;;;;;;;5044334;28;20056;-78
2022/12/27 16:19:17;;;;;;;75.15;39.38;;;;;;;;;;5043972;28;20033;-78
2022/12/27 16:21:45;;;;;;;75.38;36.13;;;;;;;;;;5041382;28;20045;-78
2022/12/27 16:24:18;;;;;;;76.07;38.83;;;;;;;;;;5064763;28;20176;-77
2022/12/27 16:27:20;;;;;;;73.85;36.25;;;;;;;;;;5043147;28;20159;-77
2022/12/27 16:29:47;;;;;;;81.15;35.72;;;;;;;;;;5047771;28;20056;-78
2022/12/27 16:32:19;;;;;;;100.70;52.15;;;;;;;;;;5047827;28;20029;-78
2022/12/27 16:34:50;;;;;;;98.60;45.30;;;;;;;;;;5043125;28;20030;-78
2022/12/27 16:37:26;;;;;;;98.35;45.05;;;;;;;;;;5060895;28;20179;-76
2022/12/27 16:40:12;;;;;;;107.80;57.83;;;;;;;;;;5044925;28;20507;-78
2022/12/27 16:42:47;;;;;;;100.95;48.75;;;;;;;;;;5045956;28;20031;-76
2022/12/27 16:45:27;;;;;;;107.97;50.88;;;;;;;;;;5043954;28;20121;-75